createdAt,value
2022-11-01T00:01:38.913Z,100.00
2022-11-01T00:04:08.997Z,100.00
2022-11-01T00:06:36.123Z,100.00
2022-11-01T00:09:05.454Z,100.00
2022-11-01T00:11:31.950Z,100.00
2022-11-01T00:13:58.435Z,100.00
2022-11-01T00:16:25.549Z,100.00
2022-11-01T00:18:52.321Z,100.00
2022-11-01T00:21:20.518Z,100.00
2022-11-01T00:23:47.555Z,100.00
2022-11-01T00:26:18.653Z,100.00
2022-11-01T00:28:46.459Z,100.00
2022-11-01T00:31:16.212Z,100.00
2022-11-01T00:33:43.107Z,100.00
2022-11-01T00:36:10.073Z,100.00
2022-11-01T00:38:39.531Z,100.00
2022-11-01T00:41:10.632Z,100.00
2022-11-01T00:43:37.597Z,100.00
2022-11-01T00:46:04.478Z,100.00
2022-11-01T00:48:31.262Z,100.00
2022-11-01T00:50:57.927Z,100.00
2022-11-01T00:53:24.880Z,100.00
2022-11-01T00:55:51.499Z,100.00
2022-11-01T00:58:18.224Z,100.00
2022-11-01T01:00:44.786Z,100.00
2022-11-01T01:03:13.613Z,100.00
2022-11-01T01:05:40.091Z,100.00
2022-11-01T01:08:06.563Z,100.00
2022-11-01T01:10:33.469Z,100.00
2022-11-01T01:13:00.384Z,100.00
2022-11-01T01:15:27.671Z,100.00
2022-11-01T01:17:54.409Z,100.00
2022-11-01T01:20:23.915Z,100.00
2022-11-01T01:22:50.446Z,100.00
2022-11-01T01:25:17.612Z,100.00
2022-11-01T01:27:44.392Z,100.00
2022-11-01T01:30:11.608Z,100.00
2022-11-01T01:32:39.664Z,100.00
2022-11-01T01:35:06.545Z,100.00
2022-11-01T01:37:33.623Z,100.00
2022-11-01T01:40:00.387Z,100.00
2022-11-01T01:42:32.951Z,100.00
2022-11-01T01:45:11.159Z,100.00
2022-11-01T01:47:40.420Z,100.00
2022-11-01T01:50:31.261Z,100.00
2022-11-01T01:53:04.696Z,100.00
2022-11-01T01:55:44.554Z,100.00
2022-11-01T01:58:13.404Z,100.00
2022-11-01T02:00:43.262Z,100.00
2022-11-01T02:03:12.292Z,100.00
2022-11-01T02:06:01.885Z,100.00
2022-11-01T02:08:29.387Z,100.00
2022-11-01T02:11:00.575Z,100.00
2022-11-01T02:13:27.187Z,100.00
2022-11-01T02:16:08.780Z,99.82
2022-11-01T02:18:57.781Z,99.25
2022-11-01T02:22:20.173Z,98.70
2022-11-01T02:25:05.202Z,99.73
2022-11-01T02:28:08.850Z,100.00
2022-11-01T02:30:45.716Z,100.00
2022-11-01T02:33:12.142Z,100.00
2022-11-01T02:35:53.683Z,100.00
2022-11-01T02:38:20.116Z,100.00
2022-11-01T02:41:05.474Z,100.00
2022-11-01T02:43:53.884Z,100.00
2022-11-01T02:46:40.724Z,100.00
2022-11-01T02:49:11.389Z,100.00
2022-11-01T02:51:40.347Z,100.00
2022-11-01T02:54:17.536Z,100.00
2022-11-01T02:56:44.184Z,100.00
2022-11-01T02:59:25.363Z,100.00
2022-11-01T03:02:11.798Z,100.00
2022-11-01T03:04:38.670Z,100.00
2022-11-01T03:07:10.351Z,100.00
2022-11-01T03:09:37.786Z,98.68
2022-11-01T03:12:26.008Z,98.15
2022-11-01T03:15:04.562Z,97.27
2022-11-01T03:17:40.001Z,96.40
2022-11-01T03:20:21.238Z,96.22
2022-11-01T03:22:53.631Z,95.72
2022-11-01T03:25:41.558Z,95.41
2022-11-01T03:28:29.584Z,97.18
2022-11-01T03:31:05.434Z,97.75
2022-11-01T03:33:35.331Z,97.93
2022-11-01T03:36:13.593Z,96.08
2022-11-01T03:38:46.712Z,96.21
2022-11-01T03:41:17.653Z,94.94
2022-11-01T03:43:45.075Z,94.32
2022-11-01T03:46:13.715Z,95.15
2022-11-01T03:48:41.709Z,95.97
2022-11-01T03:51:11.490Z,96.54
2022-11-01T03:53:37.969Z,95.62
2022-11-01T03:56:06.358Z,95.35
2022-11-01T03:58:41.846Z,95.49
2022-11-01T04:01:10.777Z,95.42
2022-11-01T04:03:37.432Z,95.48
2022-11-01T04:06:04.348Z,95.05
2022-11-01T04:08:31.509Z,94.52
2022-11-01T04:10:58.153Z,93.87
2022-11-01T04:13:26.013Z,92.94
2022-11-01T04:16:11.492Z,92.50
2022-11-01T04:18:56.561Z,90.54
2022-11-01T04:21:25.889Z,89.76
2022-11-01T04:23:52.972Z,90.95
2022-11-01T04:26:22.868Z,90.74
2022-11-01T04:29:01.472Z,90.21
2022-11-01T04:31:33.570Z,91.17
2022-11-01T04:34:01.072Z,89.58
2022-11-01T04:36:27.852Z,90.41
2022-11-01T04:38:56.810Z,90.03
2022-11-01T04:41:25.587Z,89.42
2022-11-01T04:43:57.922Z,89.53
2022-11-01T04:46:24.490Z,88.96
2022-11-01T04:48:51.309Z,88.71
2022-11-01T04:51:17.752Z,89.22
2022-11-01T04:53:44.311Z,88.87
2022-11-01T04:56:12.509Z,88.46
2022-11-01T04:58:43.086Z,87.42
2022-11-01T05:01:13.132Z,87.30
2022-11-01T05:03:39.743Z,85.83
2022-11-01T05:06:06.561Z,85.78
2022-11-01T05:08:33.145Z,84.07
2022-11-01T05:10:59.786Z,83.87
2022-11-01T05:13:26.484Z,85.54
2022-11-01T05:16:17.889Z,85.92
2022-11-01T05:18:43.512Z,85.59
2022-11-01T05:21:11.106Z,85.40
2022-11-01T05:23:37.673Z,85.88
2022-11-01T05:26:04.589Z,86.84
2022-11-01T05:28:31.077Z,86.52
2022-11-01T05:30:58.707Z,86.68
2022-11-01T05:33:25.761Z,86.95
2022-11-01T05:35:52.424Z,85.94
2022-11-01T05:38:18.941Z,85.90
2022-11-01T05:40:45.415Z,86.23
2022-11-01T05:43:13.116Z,86.49
2022-11-01T05:45:39.551Z,86.31
2022-11-01T05:48:07.078Z,85.99
2022-11-01T05:50:33.548Z,86.54
2022-11-01T05:53:07.645Z,86.55
2022-11-01T05:55:35.017Z,86.82
2022-11-01T05:58:01.571Z,87.55
2022-11-01T06:00:28.329Z,88.80
2022-11-01T06:02:57.798Z,88.43
2022-11-01T06:05:25.226Z,87.79
2022-11-01T06:07:51.719Z,88.27
2022-11-01T06:10:18.287Z,88.26
2022-11-01T06:12:44.834Z,88.55
2022-11-01T06:15:11.499Z,88.92
2022-11-01T06:17:37.976Z,88.60
2022-11-01T06:20:06.177Z,89.60
2022-11-01T06:22:36.113Z,89.88
2022-11-01T06:25:02.990Z,89.86
2022-11-01T06:27:29.853Z,89.44
2022-11-01T06:29:56.326Z,90.12
2022-11-01T06:32:23.032Z,89.95
2022-11-01T06:34:51.518Z,90.32
2022-11-01T06:37:18.005Z,89.90
2022-11-01T06:39:44.546Z,89.83
2022-11-01T06:42:11.163Z,90.65
2022-11-01T06:44:37.634Z,91.17
2022-11-01T06:47:04.165Z,91.09
2022-11-01T06:49:30.718Z,91.59
2022-11-01T06:51:57.500Z,91.31
2022-11-01T06:54:24.009Z,92.03
2022-11-01T06:56:50.484Z,91.97
2022-11-01T06:59:16.996Z,92.28
2022-11-01T07:01:45.194Z,92.88
2022-11-01T07:06:44.207Z,92.96
2022-11-01T07:09:11.093Z,93.00
2022-11-01T07:11:37.607Z,93.09
2022-11-01T07:14:04.127Z,93.41
2022-11-01T07:16:31.434Z,93.05
2022-11-01T07:19:05.644Z,93.05
2022-11-01T07:21:32.089Z,93.21
2022-11-01T07:23:58.660Z,93.55
2022-11-01T07:26:25.152Z,93.42
2022-11-01T07:28:51.654Z,93.68
2022-11-01T07:31:18.110Z,93.38
2022-11-01T07:33:44.621Z,94.01
2022-11-01T07:36:11.133Z,94.38
2022-11-01T07:38:38.446Z,93.69
2022-11-01T07:41:05.625Z,94.00
2022-11-01T07:43:35.830Z,93.41
2022-11-01T07:46:04.234Z,93.45
2022-11-01T07:48:30.778Z,94.38
2022-11-01T07:50:58.376Z,94.59
2022-11-01T07:53:25.458Z,94.39
2022-11-01T07:55:52.215Z,94.17
2022-11-01T07:58:18.755Z,93.42
2022-11-01T08:00:45.793Z,94.27
2022-11-01T08:03:15.174Z,95.11
2022-11-01T08:05:44.170Z,94.83
2022-11-01T08:08:11.419Z,95.24
2022-11-01T08:10:38.348Z,94.76
2022-11-01T08:13:19.625Z,95.44
2022-11-01T08:15:47.716Z,95.12
2022-11-01T08:18:14.934Z,95.31
2022-11-01T08:20:41.592Z,95.05
2022-11-01T08:23:08.537Z,94.28
2022-11-01T08:25:35.598Z,94.81
2022-11-01T08:28:04.535Z,94.71
2022-11-01T08:30:31.507Z,94.48
2022-11-01T08:33:02.360Z,94.97
2022-11-01T08:35:30.153Z,94.28
2022-11-01T08:37:56.761Z,95.09
2022-11-01T08:40:23.502Z,94.56
2022-11-01T08:42:51.428Z,94.26
2022-11-01T08:45:18.493Z,94.18
2022-11-01T08:47:45.082Z,93.77
2022-11-01T08:50:13.700Z,94.29
2022-11-01T08:52:41.225Z,93.82
2022-11-01T08:55:09.537Z,93.08
2022-11-01T08:57:38.293Z,92.36
2022-11-01T09:00:12.168Z,92.87
2022-11-01T09:02:39.140Z,92.24
2022-11-01T09:05:07.696Z,92.65
2022-11-01T09:07:35.798Z,92.35
2022-11-01T09:10:02.391Z,91.65
2022-11-01T09:12:29.034Z,91.86
2022-11-01T09:14:55.933Z,90.07
2022-11-01T09:17:31.988Z,89.99
2022-11-01T09:19:58.781Z,88.44
2022-11-01T09:22:26.148Z,88.30
2022-11-01T09:24:55.452Z,89.24
2022-11-01T09:27:22.335Z,89.14
2022-11-01T09:29:51.945Z,90.28
2022-11-01T09:32:18.747Z,88.70
2022-11-01T09:34:45.286Z,87.76
2022-11-01T09:37:11.725Z,87.65
2022-11-01T09:39:40.611Z,86.80
2022-11-01T09:42:16.474Z,87.64
2022-11-01T09:44:47.891Z,86.43
2022-11-01T09:47:23.912Z,84.10
2022-11-01T09:50:03.170Z,84.94
2022-11-01T09:52:29.737Z,82.28
2022-11-01T09:54:57.396Z,81.25
2022-11-01T09:57:46.180Z,80.99
2022-11-01T10:00:20.903Z,80.19
2022-11-01T10:03:15.809Z,78.56
2022-11-01T10:06:05.718Z,78.92
2022-11-01T10:09:14.320Z,77.51
2022-11-01T10:11:58.102Z,76.72
2022-11-01T10:15:12.181Z,75.99
2022-11-01T10:17:48.190Z,75.74
2022-11-01T10:20:22.386Z,75.68
2022-11-01T10:22:50.538Z,73.50
2022-11-01T10:25:21.308Z,72.73
2022-11-01T10:28:09.194Z,72.45
2022-11-01T10:30:40.965Z,72.46
2022-11-01T10:33:26.633Z,72.06
2022-11-01T10:35:59.186Z,71.62
2022-11-01T10:41:43.432Z,70.64
2022-11-01T10:44:39.859Z,70.57
2022-11-01T10:47:12.192Z,70.67
2022-11-01T10:50:10.097Z,69.22
2022-11-01T10:52:48.870Z,69.90
2022-11-01T10:55:29.488Z,70.05
2022-11-01T10:58:06.469Z,68.90
2022-11-01T11:00:37.117Z,69.04
2022-11-01T11:03:21.694Z,68.77
2022-11-01T11:05:51.597Z,68.29
2022-11-01T11:08:23.770Z,68.05
2022-11-01T11:10:50.889Z,68.41
2022-11-01T11:13:23.569Z,68.04
2022-11-01T11:15:52.636Z,67.69
2022-11-01T11:18:32.571Z,68.58
2022-11-01T11:21:04.365Z,67.21
2022-11-01T11:23:34.718Z,67.81
2022-11-01T11:26:07.882Z,67.29
2022-11-01T11:28:42.489Z,65.65
2022-11-01T11:31:22.994Z,65.80
2022-11-01T11:33:53.544Z,65.03
2022-11-01T11:36:29.416Z,64.75
2022-11-01T11:38:56.463Z,64.90
2022-11-01T11:41:29.402Z,66.08
2022-11-01T11:43:56.219Z,64.59
2022-11-01T11:46:26.000Z,63.89
2022-11-01T11:48:59.303Z,63.52
2022-11-01T11:51:30.494Z,64.26
2022-11-01T11:54:32.292Z,64.52
2022-11-01T11:57:40.946Z,63.69
2022-11-01T12:00:23.264Z,61.97
2022-11-01T12:02:50.548Z,63.38
2022-11-01T12:05:20.072Z,62.92
2022-11-01T12:07:55.443Z,62.26
2022-11-01T12:10:30.290Z,62.05
2022-11-01T12:12:57.164Z,61.04
2022-11-01T12:15:40.051Z,60.97
2022-11-01T12:18:19.442Z,61.65
2022-11-01T12:20:51.030Z,60.81
2022-11-01T12:23:35.867Z,60.69
2022-11-01T12:26:13.862Z,61.17
2022-11-01T12:28:53.834Z,62.06
2022-11-01T12:31:21.940Z,61.66
2022-11-01T12:34:03.410Z,61.73
2022-11-01T12:36:43.763Z,62.96
2022-11-01T12:39:30.907Z,62.38
2022-11-01T12:42:03.958Z,61.88
2022-11-01T12:44:43.054Z,63.10
2022-11-01T12:47:14.678Z,61.99
2022-11-01T12:49:45.083Z,62.52
2022-11-01T12:52:21.745Z,62.47
2022-11-01T12:55:01.952Z,62.32
2022-11-01T12:57:30.984Z,64.30
2022-11-01T12:59:58.204Z,63.29
2022-11-01T13:02:51.890Z,64.53
2022-11-01T13:05:28.425Z,64.29
2022-11-01T13:08:03.834Z,62.91
2022-11-01T13:13:22.704Z,62.77
2022-11-01T13:16:02.056Z,61.93
2022-11-01T13:18:43.933Z,62.58
2022-11-01T13:21:31.339Z,62.88
2022-11-01T13:24:23.879Z,64.43
2022-11-01T13:27:03.639Z,67.48
2022-11-01T13:29:41.329Z,68.64
2022-11-01T13:32:24.430Z,70.54
2022-11-01T13:35:11.180Z,69.38
2022-11-01T13:37:43.652Z,67.17
2022-11-01T13:40:33.597Z,67.32
2022-11-01T13:43:24.035Z,69.00
2022-11-01T13:46:02.619Z,69.27
2022-11-01T13:48:59.671Z,69.86
2022-11-01T13:52:09.039Z,71.25
2022-11-01T13:55:03.478Z,70.05
2022-11-01T13:57:30.262Z,70.42
2022-11-01T13:59:59.985Z,71.81
2022-11-01T14:02:26.485Z,72.75
2022-11-01T14:04:59.698Z,71.78
2022-11-01T14:07:34.200Z,70.55
2022-11-01T14:10:00.680Z,69.63
2022-11-01T14:12:46.392Z,70.29
2022-11-01T14:15:17.652Z,70.88
2022-11-01T14:17:56.307Z,72.51
2022-11-01T14:20:25.678Z,73.26
2022-11-01T14:22:56.447Z,73.29
2022-11-01T14:25:22.914Z,74.26
2022-11-01T14:28:19.391Z,74.75
2022-11-01T14:30:49.882Z,75.21
2022-11-01T14:33:22.371Z,75.19
2022-11-01T14:35:57.912Z,75.92
2022-11-01T14:38:33.973Z,75.72
2022-11-01T14:41:01.745Z,74.66
2022-11-01T14:43:50.734Z,74.47
2022-11-01T14:46:21.261Z,75.48
2022-11-01T14:49:09.378Z,76.68
2022-11-01T14:51:43.006Z,76.79
2022-11-01T14:54:15.450Z,77.35
2022-11-01T14:56:49.207Z,77.79
2022-11-01T14:59:26.013Z,77.49
2022-11-01T15:02:01.105Z,77.68
2022-11-01T15:04:50.601Z,77.87
2022-11-01T15:07:30.843Z,78.07
2022-11-01T15:10:09.796Z,78.58
2022-11-01T15:12:58.982Z,79.09
2022-11-01T15:15:36.847Z,78.56
2022-11-01T15:18:14.440Z,78.25
2022-11-01T15:20:44.219Z,77.99
2022-11-01T15:23:18.318Z,78.17
2022-11-01T15:25:52.678Z,79.61
2022-11-01T15:28:25.810Z,79.04
2022-11-01T15:30:56.295Z,79.38
2022-11-01T15:33:30.751Z,79.17
2022-11-01T15:35:59.843Z,79.46
2022-11-01T15:38:29.356Z,79.42
2022-11-01T15:40:56.218Z,79.14
2022-11-01T15:43:26.750Z,78.86
2022-11-01T15:46:01.921Z,79.15
2022-11-01T15:48:35.138Z,79.58
2022-11-01T15:51:14.586Z,80.04
2022-11-01T15:53:43.118Z,79.38
2022-11-01T15:56:18.170Z,78.97
2022-11-01T16:01:32.239Z,79.09
2022-11-01T16:04:09.920Z,79.67
2022-11-01T16:06:57.346Z,79.38
2022-11-01T16:09:26.308Z,79.28
2022-11-01T16:11:57.662Z,79.34
2022-11-01T16:14:37.143Z,80.12
2022-11-01T16:17:23.003Z,80.88
2022-11-01T16:19:54.027Z,80.91
2022-11-01T16:22:48.771Z,80.97
2022-11-01T16:25:21.991Z,81.07
2022-11-01T16:27:53.490Z,81.25
2022-11-01T16:30:42.107Z,81.26
2022-11-01T16:33:44.080Z,81.22
2022-11-01T16:36:19.435Z,81.01
2022-11-01T16:38:53.597Z,80.97
2022-11-01T16:41:26.483Z,80.84
2022-11-01T16:44:01.123Z,80.35
2022-11-01T16:46:30.059Z,80.52
2022-11-01T16:48:59.883Z,81.41
2022-11-01T16:51:36.042Z,84.47
2022-11-01T16:54:02.522Z,85.86
2022-11-01T16:56:38.259Z,87.10
2022-11-01T16:59:28.225Z,88.96
2022-11-01T17:01:59.016Z,90.16
2022-11-01T17:04:30.033Z,91.85
2022-11-01T17:07:00.462Z,92.34
2022-11-01T17:09:32.585Z,92.58
2022-11-01T17:11:59.156Z,93.23
2022-11-01T17:14:26.402Z,94.48
2022-11-01T17:16:53.299Z,97.08
2022-11-01T17:19:29.848Z,100.00
2022-11-01T17:21:57.829Z,100.00
2022-11-01T17:24:27.434Z,100.00
2022-11-01T17:26:57.909Z,100.00
2022-11-01T17:29:26.899Z,100.00
2022-11-01T17:31:53.434Z,100.00
2022-11-01T17:34:19.944Z,100.00
2022-11-01T17:36:48.763Z,100.00
2022-11-01T17:39:15.500Z,100.00
2022-11-01T17:41:42.018Z,100.00
2022-11-01T17:44:11.584Z,100.00
2022-11-01T17:46:38.352Z,100.00
2022-11-01T17:49:05.493Z,100.00
2022-11-01T17:51:32.278Z,100.00
2022-11-01T17:53:58.929Z,100.00
2022-11-01T17:56:25.608Z,100.00
2022-11-01T17:58:53.847Z,100.00
2022-11-01T18:01:21.716Z,100.00
2022-11-01T18:03:49.165Z,100.00
2022-11-01T18:06:16.323Z,100.00
2022-11-01T18:08:47.807Z,100.00
2022-11-01T18:11:36.327Z,100.00
2022-11-01T18:14:44.271Z,100.00
2022-11-01T18:17:19.664Z,100.00
2022-11-01T18:19:46.984Z,100.00
2022-11-01T18:22:52.290Z,100.00
2022-11-01T18:25:31.518Z,100.00
2022-11-01T18:28:00.621Z,100.00
2022-11-01T18:30:27.827Z,100.00
2022-11-01T18:33:02.878Z,100.00
2022-11-01T18:35:42.152Z,100.00
2022-11-01T18:38:26.189Z,100.00
2022-11-01T18:41:02.260Z,100.00
2022-11-01T18:43:32.701Z,100.00
2022-11-01T18:48:48.244Z,100.00
2022-11-01T18:51:26.676Z,100.00
2022-11-01T18:54:15.124Z,100.00
2022-11-01T18:56:48.251Z,100.00
2022-11-01T18:59:19.903Z,100.00
2022-11-01T19:01:54.377Z,100.00
2022-11-01T19:04:29.578Z,100.00
2022-11-01T19:07:11.434Z,100.00
2022-11-01T19:09:51.352Z,100.00
2022-11-01T19:12:26.918Z,100.00
2022-11-01T19:15:02.224Z,100.00
2022-11-01T19:17:35.683Z,100.00
2022-11-01T19:20:02.241Z,100.00
2022-11-01T19:22:40.616Z,100.00
2022-11-01T19:25:18.700Z,100.00
2022-11-01T19:27:48.841Z,100.00
2022-11-01T19:30:32.763Z,100.00
2022-11-01T19:33:37.200Z,100.00
2022-11-01T19:36:18.302Z,100.00
2022-11-01T19:38:46.130Z,100.00
2022-11-01T19:41:17.418Z,100.00
2022-11-01T19:43:44.250Z,100.00
2022-11-01T19:46:16.901Z,100.00
2022-11-01T19:48:43.543Z,100.00
2022-11-01T19:51:20.305Z,100.00
2022-11-01T19:53:49.188Z,100.00
2022-11-01T19:56:31.380Z,100.00
2022-11-01T19:58:59.871Z,100.00
2022-11-01T20:01:39.674Z,100.00
2022-11-01T20:04:27.884Z,100.00
2022-11-01T20:07:07.442Z,100.00
2022-11-01T20:09:38.976Z,100.00
2022-11-01T20:12:05.645Z,100.00
2022-11-01T20:14:35.347Z,100.00
2022-11-01T20:17:02.303Z,100.00
2022-11-01T20:19:34.141Z,100.00
2022-11-01T20:22:05.381Z,100.00
2022-11-01T20:24:32.113Z,100.00
2022-11-01T20:27:00.876Z,100.00
2022-11-01T20:29:27.466Z,100.00
2022-11-01T20:31:54.339Z,100.00
2022-11-01T20:34:20.902Z,100.00
2022-11-01T20:37:08.175Z,100.00
2022-11-01T20:39:34.231Z,100.00
2022-11-01T20:42:00.893Z,100.00
2022-11-01T20:44:27.872Z,100.00
2022-11-01T20:46:54.598Z,100.00
2022-11-01T20:49:21.345Z,100.00
2022-11-01T20:51:47.872Z,100.00
2022-11-01T20:54:17.846Z,100.00
2022-11-01T20:56:45.467Z,100.00
2022-11-01T20:59:12.964Z,100.00
2022-11-01T21:01:41.423Z,100.00
2022-11-01T21:04:13.755Z,100.00
2022-11-01T21:06:40.265Z,100.00
2022-11-01T21:09:26.274Z,100.00
2022-11-01T21:11:52.751Z,100.00
2022-11-01T21:14:20.688Z,100.00
2022-11-01T21:16:50.590Z,100.00
2022-11-01T21:19:24.414Z,100.00
2022-11-01T21:22:00.093Z,100.00
2022-11-01T21:24:27.039Z,100.00
2022-11-01T21:27:00.410Z,100.00
2022-11-01T21:29:29.129Z,100.00
2022-11-01T21:31:56.719Z,100.00
2022-11-01T21:34:31.192Z,100.00
2022-11-01T21:36:59.221Z,100.00
2022-11-01T21:39:27.896Z,100.00
2022-11-01T21:41:57.087Z,100.00
2022-11-01T21:44:42.618Z,100.00
2022-11-01T21:47:09.069Z,100.00
2022-11-01T21:49:38.044Z,100.00
2022-11-01T21:52:06.480Z,100.00
2022-11-01T21:54:34.812Z,100.00
2022-11-01T21:57:02.736Z,100.00
2022-11-01T21:59:29.550Z,100.00
2022-11-01T22:01:58.017Z,100.00
2022-11-01T22:04:28.515Z,100.00
2022-11-01T22:06:56.866Z,100.00
2022-11-01T22:09:23.959Z,100.00
2022-11-01T22:11:50.636Z,100.00
2022-11-01T22:14:17.360Z,100.00
2022-11-01T22:16:44.030Z,100.00
2022-11-01T22:19:10.638Z,100.00
2022-11-01T22:21:37.296Z,100.00
2022-11-01T22:24:05.631Z,100.00
2022-11-01T22:26:33.254Z,100.00
2022-11-01T22:29:01.381Z,100.00
2022-11-01T22:31:28.118Z,100.00
2022-11-01T22:33:56.009Z,100.00
2022-11-01T22:36:30.718Z,100.00
2022-11-01T22:39:02.865Z,100.00
2022-11-01T22:41:34.418Z,100.00
2022-11-01T22:44:06.436Z,100.00
2022-11-01T22:46:45.500Z,100.00
2022-11-01T22:49:35.202Z,100.00
2022-11-01T22:52:32.100Z,100.00
2022-11-01T22:55:13.856Z,100.00
2022-11-01T22:57:57.660Z,100.00
2022-11-01T23:00:29.791Z,100.00
2022-11-01T23:03:23.775Z,100.00
2022-11-01T23:05:53.207Z,100.00
2022-11-01T23:08:35.013Z,100.00
2022-11-01T23:11:02.480Z,100.00
2022-11-01T23:13:50.306Z,100.00
2022-11-01T23:16:28.626Z,100.00
2022-11-01T23:18:59.490Z,100.00
2022-11-01T23:21:27.044Z,100.00
2022-11-01T23:23:53.885Z,100.00
2022-11-01T23:26:22.592Z,100.00
2022-11-01T23:28:51.893Z,100.00
2022-11-01T23:31:19.205Z,100.00
2022-11-01T23:33:47.990Z,100.00
2022-11-01T23:36:28.638Z,100.00
2022-11-01T23:41:42.268Z,100.00
2022-11-01T23:44:29.938Z,100.00
2022-11-01T23:47:16.155Z,100.00
2022-11-01T23:49:46.822Z,100.00
2022-11-01T23:52:46.988Z,100.00
2022-11-01T23:55:35.181Z,100.00
2022-11-01T23:58:12.639Z,100.00
